createdAt,value
2023-01-01T00:00:25.813Z,1.83
2023-01-01T00:02:53.735Z,2.22
2023-01-01T00:05:21.470Z,1.80
2023-01-01T00:07:49.226Z,2.08
2023-01-01T00:10:28.834Z,1.83
2023-01-01T00:13:00.467Z,1.20
2023-01-01T00:15:29.176Z,1.40
2023-01-01T00:17:58.003Z,1.55
2023-01-01T00:20:30.018Z,1.52
2023-01-01T00:23:01.348Z,2.05
2023-01-01T00:25:29.519Z,1.42
2023-01-01T00:27:57.592Z,1.67
2023-01-01T00:30:25.528Z,1.02
2023-01-01T00:32:55.266Z,1.25
2023-01-01T00:35:25.818Z,1.90
2023-01-01T00:37:54.598Z,1.25
2023-01-01T00:40:22.969Z,1.80
2023-01-01T00:42:50.898Z,1.50
2023-01-01T00:45:21.964Z,1.67
2023-01-01T00:47:54.284Z,1.63
2023-01-01T00:50:23.147Z,1.58
2023-01-01T00:52:51.476Z,2.17
2023-01-01T00:55:19.431Z,2.13
2023-01-01T00:57:47.271Z,2.20
2023-01-01T01:00:15.776Z,2.90
2023-01-01T01:02:46.797Z,1.63
2023-01-01T01:05:14.767Z,2.20
2023-01-01T01:07:42.766Z,2.03
2023-01-01T01:10:12.527Z,2.90
2023-01-01T01:12:40.649Z,1.90
2023-01-01T01:15:09.645Z,1.75
2023-01-01T01:17:37.625Z,2.03
2023-01-01T01:20:05.847Z,2.33
2023-01-01T01:22:34.991Z,2.05
2023-01-01T01:25:03.252Z,1.88
2023-01-01T01:27:31.314Z,2.50
2023-01-01T01:29:59.159Z,2.13
2023-01-01T01:32:27.130Z,2.35
2023-01-01T01:34:55.103Z,1.80
2023-01-01T01:37:22.907Z,2.13
2023-01-01T01:39:53.929Z,2.28
2023-01-01T01:44:52.505Z,2.00
2023-01-01T01:47:30.529Z,2.60
2023-01-01T01:50:14.306Z,2.60
2023-01-01T01:53:03.720Z,2.75
2023-01-01T01:55:35.051Z,2.42
2023-01-01T01:58:04.019Z,2.65
2023-01-01T02:00:32.142Z,2.58
2023-01-01T02:03:04.881Z,3.40
2023-01-01T02:05:34.465Z,2.75
2023-01-01T02:08:04.505Z,2.03
2023-01-01T02:10:32.806Z,1.83
2023-01-01T02:13:00.926Z,2.08
2023-01-01T02:15:37.920Z,2.22
2023-01-01T02:18:14.106Z,2.50
2023-01-01T02:21:04.206Z,2.35
2023-01-01T02:23:56.302Z,2.75
2023-01-01T02:26:43.953Z,2.40
2023-01-01T02:29:34.961Z,1.90
2023-01-01T02:32:05.852Z,2.10
2023-01-01T02:35:00.138Z,2.10
2023-01-01T02:37:30.299Z,1.40
2023-01-01T02:39:59.202Z,2.05
2023-01-01T02:42:28.852Z,1.98
2023-01-01T02:44:58.379Z,1.70
2023-01-01T02:47:26.406Z,1.88
2023-01-01T02:50:04.694Z,1.58
2023-01-01T02:52:48.832Z,1.95
2023-01-01T02:55:32.656Z,2.20
2023-01-01T02:58:44.639Z,2.45
2023-01-01T03:01:15.833Z,1.42
2023-01-01T03:03:56.563Z,1.88
2023-01-01T03:06:38.499Z,2.13
2023-01-01T03:09:15.015Z,2.55
2023-01-01T03:11:50.942Z,2.35
2023-01-01T03:14:49.455Z,1.80
2023-01-01T03:17:30.715Z,1.58
2023-01-01T03:20:02.179Z,2.20
2023-01-01T03:22:33.513Z,2.15
2023-01-01T03:25:13.909Z,2.40
2023-01-01T03:27:50.956Z,2.45
2023-01-01T03:30:23.397Z,2.03
2023-01-01T03:33:06.264Z,2.22
2023-01-01T03:35:50.979Z,2.08
2023-01-01T03:38:28.706Z,1.88
2023-01-01T03:41:23.656Z,1.90
2023-01-01T03:44:04.288Z,1.95
2023-01-01T03:46:35.006Z,2.35
2023-01-01T03:49:04.760Z,2.40
2023-01-01T03:52:15.576Z,2.08
2023-01-01T03:54:43.824Z,2.10
2023-01-01T03:57:22.195Z,2.50
2023-01-01T04:00:19.892Z,1.80
2023-01-01T04:02:57.185Z,2.42
2023-01-01T04:05:25.870Z,1.70
2023-01-01T04:07:54.916Z,2.28
2023-01-01T04:10:24.070Z,2.80
2023-01-01T04:12:54.424Z,2.42
2023-01-01T04:15:27.361Z,2.65
2023-01-01T04:17:56.063Z,2.70
2023-01-01T04:20:24.399Z,2.25
2023-01-01T04:22:52.380Z,2.30
2023-01-01T04:25:20.312Z,2.58
2023-01-01T04:27:48.340Z,2.78
2023-01-01T04:30:16.959Z,2.35
2023-01-01T04:32:45.039Z,2.72
2023-01-01T04:35:14.413Z,2.33
2023-01-01T04:37:44.084Z,4.07
2023-01-01T04:40:13.002Z,2.25
2023-01-01T04:42:41.164Z,2.20
2023-01-01T04:45:09.754Z,2.55
2023-01-01T04:47:37.630Z,3.10
2023-01-01T04:50:08.277Z,2.33
2023-01-01T04:52:36.539Z,2.53
2023-01-01T04:55:04.441Z,2.20
2023-01-01T04:57:32.454Z,2.58
2023-01-01T05:00:00.364Z,2.42
2023-01-01T05:02:28.980Z,3.28
2023-01-01T05:04:57.112Z,2.67
2023-01-01T05:07:25.101Z,2.75
2023-01-01T05:09:52.923Z,2.47
2023-01-01T05:12:20.828Z,2.72
2023-01-01T05:14:48.724Z,2.35
2023-01-01T05:17:16.670Z,2.72
2023-01-01T05:19:44.717Z,2.53
2023-01-01T05:22:12.576Z,2.88
2023-01-01T05:24:40.300Z,2.70
2023-01-01T05:27:08.925Z,3.20
2023-01-01T05:29:37.925Z,3.30
2023-01-01T05:32:05.738Z,2.25
2023-01-01T05:37:02.628Z,2.83
2023-01-01T05:39:30.715Z,2.53
2023-01-01T05:41:58.571Z,3.03
2023-01-01T05:44:27.854Z,2.83
2023-01-01T05:46:55.910Z,2.95
2023-01-01T05:49:23.739Z,2.42
2023-01-01T05:51:51.607Z,2.65
2023-01-01T05:56:45.997Z,2.70
2023-01-01T05:59:14.061Z,2.58
2023-01-01T06:01:45.917Z,2.80
2023-01-01T06:04:14.713Z,2.50
2023-01-01T06:06:42.627Z,2.50
2023-01-01T06:09:11.572Z,2.50
2023-01-01T06:11:39.563Z,2.05
2023-01-01T06:14:07.357Z,2.83
2023-01-01T06:16:35.164Z,2.17
2023-01-01T06:19:03.087Z,2.90
2023-01-01T06:21:31.017Z,2.67
2023-01-01T06:24:00.787Z,2.50
2023-01-01T06:26:31.201Z,3.00
2023-01-01T06:29:00.347Z,3.00
2023-01-01T06:31:31.207Z,2.05
2023-01-01T06:34:02.612Z,2.60
2023-01-01T06:36:32.865Z,2.22
2023-01-01T06:39:00.810Z,2.17
2023-01-01T06:41:29.765Z,2.20
2023-01-01T06:43:59.132Z,2.25
2023-01-01T06:46:29.508Z,2.47
2023-01-01T06:49:00.046Z,2.28
2023-01-01T06:51:32.998Z,2.55
2023-01-01T06:54:02.242Z,3.00
2023-01-01T06:56:32.206Z,2.58
2023-01-01T06:59:00.804Z,2.13
2023-01-01T07:01:31.337Z,2.58
2023-01-01T07:04:00.198Z,3.03
2023-01-01T07:06:29.524Z,2.10
2023-01-01T07:08:57.860Z,3.15
2023-01-01T07:11:26.526Z,3.28
2023-01-01T07:13:54.607Z,2.53
2023-01-01T07:16:23.327Z,2.60
2023-01-01T07:18:52.320Z,2.85
2023-01-01T07:21:33.485Z,3.35
2023-01-01T07:24:03.121Z,2.78
2023-01-01T07:26:32.082Z,2.80
2023-01-01T07:29:06.788Z,2.92
2023-01-01T07:31:40.665Z,3.25
2023-01-01T07:34:13.026Z,2.60
2023-01-01T07:36:41.507Z,2.50
2023-01-01T07:39:09.655Z,2.75
2023-01-01T07:41:38.413Z,2.13
2023-01-01T07:44:06.549Z,3.22
2023-01-01T07:46:37.934Z,2.50
2023-01-01T07:51:33.665Z,3.17
2023-01-01T07:54:06.499Z,3.08
2023-01-01T07:56:36.417Z,3.08
2023-01-01T07:59:04.718Z,2.95
2023-01-01T08:01:35.018Z,2.45
2023-01-01T08:04:03.049Z,3.13
2023-01-01T08:06:30.801Z,3.78
2023-01-01T08:08:58.664Z,2.97
2023-01-01T08:11:26.776Z,3.10
2023-01-01T08:13:55.421Z,2.97
2023-01-01T08:16:23.375Z,2.80
2023-01-01T08:18:51.197Z,3.20
2023-01-01T08:21:19.089Z,2.70
2023-01-01T08:23:46.864Z,2.90
2023-01-01T08:26:18.907Z,2.58
2023-01-01T08:28:49.720Z,3.00
2023-01-01T08:31:21.362Z,2.65
2023-01-01T08:33:49.317Z,2.38
2023-01-01T08:36:17.393Z,2.30
2023-01-01T08:38:45.192Z,2.60
2023-01-01T08:41:13.006Z,2.85
2023-01-01T08:43:40.771Z,3.08
2023-01-01T08:46:08.894Z,2.65
2023-01-01T08:48:36.950Z,2.70
2023-01-01T08:51:05.248Z,2.67
2023-01-01T08:53:33.692Z,2.63
2023-01-01T08:56:04.746Z,2.20
2023-01-01T08:58:33.697Z,2.15
2023-01-01T09:01:01.715Z,2.08
2023-01-01T09:03:30.012Z,2.13
2023-01-01T09:05:58.455Z,2.45
2023-01-01T09:08:26.439Z,2.13
2023-01-01T09:10:58.003Z,2.33
2023-01-01T09:13:25.952Z,2.22
2023-01-01T09:15:53.737Z,2.58
2023-01-01T09:18:21.697Z,2.40
2023-01-01T09:20:50.524Z,2.08
2023-01-01T09:23:18.488Z,2.65
2023-01-01T09:25:46.349Z,1.80
2023-01-01T09:28:15.836Z,1.83
2023-01-01T09:30:46.080Z,2.28
2023-01-01T09:33:13.924Z,1.90
2023-01-01T09:35:44.421Z,2.08
2023-01-01T09:38:12.365Z,2.37
2023-01-01T09:41:08.990Z,1.70
2023-01-01T09:43:50.245Z,2.75
2023-01-01T09:46:18.245Z,2.75
2023-01-01T09:48:56.712Z,2.05
2023-01-01T09:51:26.705Z,1.77
2023-01-01T09:53:54.941Z,1.50
2023-01-01T09:56:28.547Z,1.60
2023-01-01T09:58:59.455Z,1.55
2023-01-01T10:01:55.979Z,1.60
2023-01-01T10:04:49.000Z,1.45
2023-01-01T10:07:42.458Z,1.58
2023-01-01T10:10:33.722Z,1.40
2023-01-01T10:13:07.639Z,1.60
2023-01-01T10:15:38.514Z,1.35
2023-01-01T10:18:15.782Z,1.65
2023-01-01T10:20:50.986Z,1.33
2023-01-01T10:23:27.357Z,1.38
2023-01-01T10:25:57.967Z,1.75
2023-01-01T10:28:55.569Z,2.00
2023-01-01T10:31:33.512Z,1.75
2023-01-01T10:34:19.611Z,1.55
2023-01-01T10:36:47.882Z,1.50
2023-01-01T10:39:19.211Z,1.02
2023-01-01T10:41:47.757Z,1.80
2023-01-01T10:44:18.542Z,1.60
2023-01-01T10:46:49.645Z,1.67
2023-01-01T10:49:17.471Z,1.40
2023-01-01T10:51:50.891Z,1.30
2023-01-01T10:54:37.898Z,1.30
2023-01-01T10:57:18.839Z,1.25
2023-01-01T10:59:53.957Z,1.30
2023-01-01T11:02:28.504Z,1.80
2023-01-01T11:05:21.891Z,1.30
2023-01-01T11:07:50.347Z,1.58
2023-01-01T11:10:31.298Z,2.42
2023-01-01T11:13:06.754Z,1.40
2023-01-01T11:15:42.581Z,2.25
2023-01-01T11:18:21.309Z,1.45
2023-01-01T11:20:57.085Z,1.42
2023-01-01T11:23:41.106Z,1.40
2023-01-01T11:26:17.926Z,1.38
2023-01-01T11:29:15.972Z,1.50
2023-01-01T11:31:46.706Z,1.40
2023-01-01T11:34:29.634Z,1.50
2023-01-01T11:37:33.493Z,1.95
2023-01-01T11:40:02.375Z,1.40
2023-01-01T11:42:32.677Z,1.40
2023-01-01T11:45:17.358Z,1.17
2023-01-01T11:47:46.185Z,1.45
2023-01-01T11:50:33.661Z,1.45
2023-01-01T11:53:23.445Z,1.10
2023-01-01T11:56:08.646Z,1.40
2023-01-01T11:58:41.990Z,1.35
2023-01-01T12:01:39.930Z,1.20
2023-01-01T12:04:18.123Z,1.30
2023-01-01T12:06:52.640Z,1.20
2023-01-01T12:09:48.146Z,1.40
2023-01-01T12:12:26.297Z,1.55
2023-01-01T12:15:16.572Z,1.20
2023-01-01T12:18:07.129Z,1.73
2023-01-01T12:20:37.873Z,1.20
2023-01-01T12:23:05.912Z,1.95
2023-01-01T12:25:48.431Z,1.13
2023-01-01T12:28:29.493Z,1.35
2023-01-01T12:31:06.066Z,1.27
2023-01-01T12:33:40.902Z,1.20
2023-01-01T12:36:24.342Z,1.33
2023-01-01T12:39:10.980Z,1.75
2023-01-01T12:41:41.680Z,1.23
2023-01-01T12:44:22.393Z,1.65
2023-01-01T12:47:40.873Z,1.75
2023-01-01T12:50:24.800Z,1.10
2023-01-01T12:52:55.313Z,1.30
2023-01-01T12:55:56.188Z,1.30
2023-01-01T12:58:39.384Z,1.50
2023-01-01T13:01:15.089Z,1.30
2023-01-01T13:03:57.474Z,1.35
2023-01-01T13:06:43.109Z,1.33
2023-01-01T13:09:31.463Z,2.05
2023-01-01T13:12:20.790Z,1.33
2023-01-01T13:14:50.288Z,1.10
2023-01-01T13:17:29.377Z,1.23
2023-01-01T13:20:02.309Z,1.02
2023-01-01T13:22:39.324Z,0.80
2023-01-01T13:25:11.168Z,0.90
2023-01-01T13:28:03.450Z,0.90
2023-01-01T13:30:42.866Z,0.90
2023-01-01T13:33:37.125Z,1.08
2023-01-01T13:36:19.936Z,2.08
2023-01-01T13:38:57.923Z,1.40
2023-01-01T13:41:29.762Z,1.15
2023-01-01T13:44:00.285Z,1.10
2023-01-01T13:46:34.304Z,1.00
2023-01-01T13:49:37.191Z,1.25
2023-01-01T13:52:53.748Z,1.10
2023-01-01T13:55:52.716Z,1.20
2023-01-01T13:58:23.654Z,0.93
2023-01-01T14:01:13.531Z,0.93
2023-01-01T14:03:51.705Z,1.38
2023-01-01T14:06:40.085Z,1.02
2023-01-01T14:09:16.073Z,1.05
2023-01-01T14:11:44.054Z,1.40
2023-01-01T14:14:27.076Z,0.80
2023-01-01T14:17:00.566Z,1.10
2023-01-01T14:19:28.922Z,1.13
2023-01-01T14:21:57.399Z,1.13
2023-01-01T14:24:25.928Z,1.73
2023-01-01T14:26:55.207Z,1.10
2023-01-01T14:29:29.442Z,1.17
2023-01-01T14:31:59.813Z,1.48
2023-01-01T14:34:33.194Z,1.00
2023-01-01T14:37:03.816Z,1.20
2023-01-01T14:39:33.605Z,0.87
2023-01-01T14:42:08.539Z,0.93
2023-01-01T14:44:41.868Z,0.93
2023-01-01T14:47:31.595Z,0.68
2023-01-01T14:50:05.497Z,1.00
2023-01-01T14:52:35.731Z,0.90
2023-01-01T14:55:05.045Z,1.35
2023-01-01T14:57:35.014Z,0.93
2023-01-01T15:00:05.157Z,1.45
2023-01-01T15:02:41.751Z,1.00
2023-01-01T15:05:34.887Z,0.85
2023-01-01T15:08:06.135Z,0.88
2023-01-01T15:10:36.668Z,1.20
2023-01-01T15:13:08.592Z,1.10
2023-01-01T15:15:37.396Z,0.93
2023-01-01T15:18:05.428Z,0.93
2023-01-01T15:20:33.354Z,0.85
2023-01-01T15:23:06.397Z,0.77
2023-01-01T15:25:38.620Z,1.60
2023-01-01T15:28:15.011Z,0.93
2023-01-01T15:30:42.983Z,0.70
2023-01-01T15:33:16.293Z,0.85
2023-01-01T15:35:48.235Z,0.82
2023-01-01T15:38:31.375Z,0.85
2023-01-01T15:40:59.279Z,0.85
2023-01-01T15:43:31.854Z,0.68
2023-01-01T15:46:11.961Z,0.88
2023-01-01T15:48:51.758Z,0.60
2023-01-01T15:51:24.491Z,1.00
2023-01-01T15:53:56.949Z,0.80
2023-01-01T15:56:32.597Z,1.10
2023-01-01T15:59:10.287Z,1.17
2023-01-01T16:01:40.045Z,1.13
2023-01-01T16:04:29.210Z,2.15
2023-01-01T16:06:58.443Z,1.08
2023-01-01T16:09:27.287Z,1.23
2023-01-01T16:11:57.522Z,1.10
2023-01-01T16:14:25.465Z,0.95
2023-01-01T16:17:01.196Z,1.50
2023-01-01T16:19:31.070Z,0.80
2023-01-01T16:21:59.380Z,0.95
2023-01-01T16:24:28.053Z,0.75
2023-01-01T16:26:55.957Z,0.82
2023-01-01T16:29:23.831Z,0.80
2023-01-01T16:31:52.483Z,0.82
2023-01-01T16:34:23.545Z,1.17
2023-01-01T16:36:51.311Z,1.00
2023-01-01T16:39:19.647Z,0.93
2023-01-01T16:41:47.382Z,1.08
2023-01-01T16:44:16.517Z,0.90
2023-01-01T16:46:44.703Z,1.00
2023-01-01T16:49:12.658Z,1.10
2023-01-01T16:51:43.720Z,1.13
2023-01-01T16:56:40.230Z,1.40
2023-01-01T16:59:08.215Z,1.40
2023-01-01T17:01:39.764Z,1.35
2023-01-01T17:04:07.839Z,1.58
2023-01-01T17:06:35.668Z,1.10
2023-01-01T17:09:03.610Z,1.02
2023-01-01T17:11:31.608Z,1.27
2023-01-01T17:14:00.137Z,1.15
2023-01-01T17:16:38.270Z,1.23
2023-01-01T17:19:16.137Z,1.15
2023-01-01T17:21:47.790Z,1.27
2023-01-01T17:24:17.299Z,1.27
2023-01-01T17:26:45.774Z,1.10
2023-01-01T17:29:13.548Z,0.88
2023-01-01T17:31:41.492Z,1.27
2023-01-01T17:34:14.189Z,1.20
2023-01-01T17:36:44.480Z,0.93
2023-01-01T17:39:15.870Z,1.10
2023-01-01T17:41:44.658Z,1.45
2023-01-01T17:44:12.631Z,1.00
2023-01-01T17:46:40.904Z,1.15
2023-01-01T17:49:09.460Z,1.25
2023-01-01T17:51:37.641Z,1.58
2023-01-01T17:54:07.437Z,1.02
2023-01-01T17:56:35.493Z,1.30
2023-01-01T17:59:03.588Z,1.08
2023-01-01T18:01:33.338Z,1.20
2023-01-01T18:04:08.851Z,1.17
2023-01-01T18:06:42.165Z,1.10
2023-01-01T18:09:13.915Z,1.35
2023-01-01T18:11:42.172Z,0.80
2023-01-01T18:14:10.815Z,1.10
2023-01-01T18:16:40.229Z,1.00
2023-01-01T18:19:08.363Z,1.10
2023-01-01T18:21:36.329Z,1.00
2023-01-01T18:24:06.733Z,1.48
2023-01-01T18:26:36.147Z,1.10
2023-01-01T18:29:05.028Z,0.93
2023-01-01T18:31:35.045Z,1.23
2023-01-01T18:34:04.593Z,0.95
2023-01-01T18:36:34.171Z,1.00
2023-01-01T18:39:09.608Z,1.10
2023-01-01T18:41:49.673Z,1.05
2023-01-01T18:44:22.948Z,1.10
2023-01-01T18:47:04.688Z,1.25
2023-01-01T18:49:33.367Z,1.02
2023-01-01T18:52:23.949Z,1.10
2023-01-01T18:55:07.263Z,1.13
2023-01-01T18:57:35.540Z,1.20
2023-01-01T19:00:26.141Z,1.50
2023-01-01T19:02:59.759Z,1.17
2023-01-01T19:05:30.224Z,1.10
2023-01-01T19:08:07.508Z,1.30
2023-01-01T19:10:43.780Z,1.00
2023-01-01T19:13:25.727Z,1.17
2023-01-01T19:16:03.510Z,1.20
2023-01-01T19:18:33.499Z,1.83
2023-01-01T19:21:13.140Z,1.10
2023-01-01T19:24:02.345Z,1.45
2023-01-01T19:26:33.245Z,1.35
2023-01-01T19:29:20.373Z,1.60
2023-01-01T19:31:50.025Z,1.42
2023-01-01T19:34:18.568Z,2.22
2023-01-01T19:36:46.684Z,1.77
2023-01-01T19:39:15.476Z,2.28
2023-01-01T19:41:43.627Z,1.30
2023-01-01T19:44:11.664Z,1.67
2023-01-01T19:46:39.867Z,1.50
2023-01-01T19:49:07.822Z,1.45
2023-01-01T19:51:36.106Z,1.20
2023-01-01T19:54:04.200Z,1.30
2023-01-01T19:56:32.304Z,1.20
2023-01-01T19:59:00.427Z,1.25
2023-01-01T20:01:31.755Z,1.60
2023-01-01T20:03:59.760Z,1.27
2023-01-01T20:06:27.785Z,1.30
2023-01-01T20:08:55.697Z,1.50
2023-01-01T20:11:23.966Z,1.40
2023-01-01T20:13:51.830Z,2.15
2023-01-01T20:16:19.896Z,1.30
2023-01-01T20:18:49.526Z,1.42
2023-01-01T20:21:35.745Z,1.33
2023-01-01T20:24:03.591Z,1.80
2023-01-01T20:26:31.361Z,1.20
2023-01-01T20:29:18.043Z,1.50
2023-01-01T20:31:47.637Z,1.30
2023-01-01T20:34:15.661Z,1.30
2023-01-01T20:37:05.131Z,1.40
2023-01-01T20:39:33.375Z,1.13
2023-01-01T20:42:01.457Z,1.25
2023-01-01T20:44:30.274Z,1.23
2023-01-01T20:46:59.286Z,1.30
2023-01-01T20:49:27.256Z,0.98
2023-01-01T20:51:55.347Z,1.17
2023-01-01T20:54:23.952Z,1.27
2023-01-01T20:56:52.410Z,1.58
2023-01-01T20:59:37.721Z,1.33
2023-01-01T21:02:08.355Z,1.27
2023-01-01T21:04:39.022Z,1.65
2023-01-01T21:07:11.272Z,1.20
2023-01-01T21:09:40.150Z,1.40
2023-01-01T21:12:09.469Z,0.90
2023-01-01T21:14:37.896Z,1.33
2023-01-01T21:17:23.504Z,1.00
2023-01-01T21:19:56.866Z,2.17
2023-01-01T21:22:25.046Z,1.30
2023-01-01T21:24:54.777Z,1.20
2023-01-01T21:27:31.895Z,1.48
2023-01-01T21:30:00.546Z,1.20
2023-01-01T21:32:40.339Z,1.10
2023-01-01T21:35:34.526Z,1.30
2023-01-01T21:38:17.367Z,1.40
2023-01-01T21:41:02.420Z,1.50
2023-01-01T21:43:37.888Z,1.20
2023-01-01T21:46:08.985Z,1.80
2023-01-01T21:49:03.325Z,1.25
2023-01-01T21:51:42.581Z,1.50
2023-01-01T21:54:10.789Z,1.65
2023-01-01T21:56:43.295Z,1.15
2023-01-01T21:59:26.304Z,0.98
2023-01-01T22:01:56.076Z,1.48
2023-01-01T22:04:26.141Z,1.33
2023-01-01T22:06:55.410Z,1.10
2023-01-01T22:09:36.803Z,0.95
2023-01-01T22:12:21.696Z,0.88
2023-01-01T22:14:51.581Z,1.00
2023-01-01T22:17:34.960Z,1.27
2023-01-01T22:20:24.913Z,1.20
2023-01-01T22:22:52.844Z,1.20
2023-01-01T22:25:33.337Z,1.30
2023-01-01T22:28:25.576Z,1.70
2023-01-01T22:30:58.663Z,1.30
2023-01-01T22:33:32.729Z,1.15
2023-01-01T22:36:00.684Z,1.40
2023-01-01T22:38:33.479Z,1.20
2023-01-01T22:41:01.720Z,1.30
2023-01-01T22:43:35.129Z,1.33
2023-01-01T22:46:18.391Z,1.30
2023-01-01T22:48:46.400Z,1.20
2023-01-01T22:51:26.215Z,1.35
2023-01-01T22:53:56.660Z,1.40
2023-01-01T22:56:24.667Z,1.27
2023-01-01T22:58:57.257Z,1.30
2023-01-01T23:01:25.901Z,1.73
2023-01-01T23:03:54.501Z,2.00
2023-01-01T23:06:23.226Z,1.80
2023-01-01T23:08:52.528Z,1.90
2023-01-01T23:11:21.018Z,1.52
2023-01-01T23:14:09.520Z,1.90
2023-01-01T23:16:37.701Z,1.75
2023-01-01T23:19:05.964Z,1.67
2023-01-01T23:21:35.271Z,2.88
2023-01-01T23:24:06.442Z,1.80
2023-01-01T23:26:35.037Z,1.48
2023-01-01T23:29:04.462Z,1.48
2023-01-01T23:31:32.911Z,1.58
2023-01-01T23:34:01.064Z,1.70
2023-01-01T23:36:29.065Z,1.60
2023-01-01T23:38:57.203Z,2.00
2023-01-01T23:41:25.538Z,2.03
2023-01-01T23:43:53.446Z,1.75
2023-01-01T23:46:21.481Z,1.50
2023-01-01T23:48:49.812Z,2.03
2023-01-01T23:51:19.031Z,1.50
2023-01-01T23:53:47.631Z,1.92
2023-01-01T23:56:15.732Z,1.75
2023-01-01T23:58:43.940Z,1.73
